createdAt,value
2019-05-02T00:01:29.065Z,50.97
2019-05-02T00:03:58.688Z,54.47
2019-05-02T00:06:28.503Z,52.20
2019-05-02T00:08:57.759Z,52.60
2019-05-02T00:11:27.982Z,51.77
2019-05-02T00:13:59.545Z,62.90
2019-05-02T00:16:29.468Z,49.87
2019-05-02T00:18:58.690Z,58.83
2019-05-02T00:21:27.965Z,60.37
2019-05-02T00:23:59.236Z,49.77
2019-05-02T00:26:28.545Z,54.37
2019-05-02T00:28:59.336Z,55.47
2019-05-02T00:31:30.049Z,50.80
2019-05-02T00:33:59.315Z,45.00
2019-05-02T00:36:28.558Z,50.23
2019-05-02T00:38:57.834Z,60.43
2019-05-02T00:41:27.113Z,59.80
2019-05-02T00:43:56.817Z,56.53
2019-05-02T00:46:30.346Z,60.77
2019-05-02T00:48:59.742Z,55.67
2019-05-02T00:51:30.125Z,64.47
2019-05-02T00:53:59.381Z,57.93
2019-05-02T00:56:28.616Z,60.60
2019-05-02T00:59:02.275Z,62.53
2019-05-02T01:02:05.363Z,59.73
2019-05-02T01:04:37.515Z,60.80
2019-05-02T01:07:07.630Z,59.63
2019-05-02T01:09:36.851Z,62.13
2019-05-02T01:12:08.316Z,62.57
2019-05-02T01:14:37.506Z,57.23
2019-05-02T01:17:07.114Z,59.25
2019-05-02T01:19:36.727Z,65.60
2019-05-02T01:22:10.440Z,58.20
2019-05-02T01:24:39.618Z,65.30
2019-05-02T01:27:17.857Z,56.58
2019-05-02T01:30:08.549Z,59.57
2019-05-02T01:33:01.411Z,61.80
2019-05-02T01:35:35.690Z,58.87
2019-05-02T01:38:26.535Z,57.80
2019-05-02T01:40:54.932Z,57.10
2019-05-02T01:43:26.109Z,63.50
2019-05-02T01:45:55.355Z,60.17
2019-05-02T01:48:25.111Z,52.60
2019-05-02T01:50:54.391Z,58.10
2019-05-02T01:53:23.626Z,60.77
2019-05-02T01:55:57.825Z,53.70
2019-05-02T01:58:24.519Z,60.33
2019-05-02T02:00:53.959Z,59.63
2019-05-02T02:03:23.247Z,57.87
2019-05-02T02:05:52.513Z,62.13
2019-05-02T02:08:22.033Z,57.07
2019-05-02T02:10:56.117Z,56.47
2019-05-02T02:13:22.726Z,50.73
2019-05-02T02:15:53.762Z,57.60
2019-05-02T02:18:27.489Z,64.23
2019-05-02T02:21:25.511Z,61.70
2019-05-02T02:24:05.918Z,55.77
2019-05-02T02:26:37.335Z,57.03
2019-05-02T02:29:07.791Z,61.13
2019-05-02T02:31:39.611Z,55.87
2019-05-02T02:34:08.578Z,47.17
2019-05-02T02:36:38.222Z,51.20
2019-05-02T02:39:14.541Z,57.77
2019-05-02T02:41:39.240Z,53.30
2019-05-02T02:44:14.893Z,53.93
2019-05-02T02:46:46.076Z,55.27
2019-05-02T02:49:21.783Z,58.77
2019-05-02T02:51:46.304Z,51.03
2019-05-02T02:54:18.320Z,56.70
2019-05-02T02:56:47.659Z,54.47
2019-05-02T02:59:19.559Z,49.00
2019-05-02T03:01:48.532Z,51.53
2019-05-02T03:04:18.219Z,52.87
2019-05-02T03:06:47.857Z,47.67
2019-05-02T03:09:20.337Z,56.60
2019-05-02T03:12:53.841Z,53.87
2019-05-02T03:15:28.126Z,57.50
2019-05-02T03:17:59.898Z,49.13
2019-05-02T03:20:26.825Z,54.67
2019-05-02T03:22:56.050Z,52.10
2019-05-02T03:25:49.249Z,63.23
2019-05-02T03:27:57.350Z,57.80
2019-05-02T03:30:36.253Z,51.13
2019-05-02T03:33:06.197Z,57.67
2019-05-02T03:35:41.137Z,56.73
2019-05-02T03:38:00.697Z,64.43
2019-05-02T03:40:32.215Z,56.50
2019-05-02T03:43:01.410Z,66.27
2019-05-02T03:45:32.067Z,67.23
2019-05-02T03:48:02.237Z,64.37
2019-05-02T03:50:32.901Z,59.77
2019-05-02T03:53:02.624Z,65.93
2019-05-02T03:55:33.992Z,59.37
2019-05-02T03:58:13.125Z,64.80
2019-05-02T04:00:36.213Z,70.83
2019-05-02T04:03:06.288Z,67.60
2019-05-02T04:05:40.349Z,68.03
2019-05-02T04:08:07.262Z,68.97
2019-05-02T04:11:20.783Z,78.30
2019-05-02T04:13:52.579Z,68.17
2019-05-02T04:16:22.470Z,72.97
2019-05-02T04:18:55.743Z,74.70
2019-05-02T04:21:25.965Z,75.73
2019-05-02T04:24:06.668Z,79.30
2019-05-02T04:26:26.087Z,77.57
2019-05-02T04:28:56.909Z,80.73
2019-05-02T04:31:31.805Z,86.10
2019-05-02T04:33:57.909Z,75.60
2019-05-02T04:36:27.246Z,73.20
2019-05-02T04:38:59.547Z,84.23
2019-05-02T04:41:30.449Z,82.87
2019-05-02T04:44:01.623Z,89.20
2019-05-02T04:46:31.416Z,90.00
2019-05-02T04:49:01.179Z,98.27
2019-05-02T04:51:31.970Z,101.30
2019-05-02T04:54:01.743Z,92.20
2019-05-02T04:56:31.090Z,105.53
2019-05-02T04:59:01.962Z,105.03
2019-05-02T05:01:42.084Z,109.87
2019-05-02T05:04:03.457Z,101.30
2019-05-02T05:06:33.065Z,106.60
2019-05-02T05:09:04.021Z,94.37
2019-05-02T05:11:33.387Z,100.43
2019-05-02T05:14:03.094Z,105.37
2019-05-02T05:16:32.325Z,91.33
2019-05-02T05:19:01.914Z,93.70
2019-05-02T05:21:31.156Z,98.27
2019-05-02T05:24:19.375Z,98.93
2019-05-02T05:26:52.010Z,100.75
2019-05-02T05:29:23.208Z,95.10
2019-05-02T05:31:55.119Z,89.37
2019-05-02T05:34:28.578Z,96.03
2019-05-02T05:36:54.951Z,90.10
2019-05-02T05:39:24.204Z,85.33
2019-05-02T05:41:53.801Z,94.33
2019-05-02T05:44:27.334Z,91.07
2019-05-02T05:46:54.066Z,95.43
2019-05-02T05:49:23.803Z,96.57
2019-05-02T05:51:54.271Z,84.37
2019-05-02T05:54:24.608Z,93.10
2019-05-02T05:56:54.221Z,84.13
2019-05-02T05:59:28.122Z,90.43
2019-05-02T06:01:55.161Z,92.37
2019-05-02T06:04:30.146Z,86.07
2019-05-02T06:06:59.582Z,92.77
2019-05-02T06:09:31.266Z,89.90
2019-05-02T06:11:57.804Z,91.00
2019-05-02T06:14:27.424Z,96.90
2019-05-02T06:16:56.904Z,97.55
2019-05-02T06:19:26.165Z,90.70
2019-05-02T06:21:55.394Z,96.07
2019-05-02T06:24:24.669Z,98.27
2019-05-02T06:26:54.294Z,96.93
2019-05-02T06:29:23.619Z,103.20
2019-05-02T06:31:53.217Z,96.37
2019-05-02T06:34:23.109Z,87.73
2019-05-02T06:36:52.537Z,93.03
2019-05-02T06:39:27.217Z,87.20
2019-05-02T06:41:57.508Z,85.93
2019-05-02T06:44:26.930Z,89.20
2019-05-02T06:46:59.269Z,86.93
2019-05-02T06:49:27.242Z,85.87
2019-05-02T06:51:57.804Z,78.67
2019-05-02T06:54:27.513Z,84.53
2019-05-02T06:56:57.311Z,87.77
2019-05-02T06:59:26.573Z,76.87
2019-05-02T07:01:58.666Z,85.10
2019-05-02T07:04:28.707Z,81.00
2019-05-02T07:06:59.746Z,79.53
2019-05-02T07:09:40.311Z,93.07
2019-05-02T07:12:01.907Z,83.10
2019-05-02T07:14:31.281Z,80.10
2019-05-02T07:17:20.106Z,90.33
2019-05-02T07:19:52.577Z,88.00
2019-05-02T07:22:22.905Z,84.67
2019-05-02T07:24:52.379Z,97.83
2019-05-02T07:27:21.635Z,88.40
2019-05-02T07:29:52.094Z,82.00
2019-05-02T07:32:24.884Z,95.70
2019-05-02T07:34:54.028Z,80.27
2019-05-02T07:37:23.275Z,83.40
2019-05-02T07:39:53.216Z,77.73
2019-05-02T07:42:22.851Z,81.70
2019-05-02T07:44:52.453Z,75.83
2019-05-02T07:47:21.741Z,79.63
2019-05-02T07:49:50.950Z,79.37
2019-05-02T07:52:20.202Z,79.40
2019-05-02T07:54:49.488Z,89.77
2019-05-02T07:57:18.782Z,86.70
2019-05-02T07:59:49.917Z,83.70
2019-05-02T08:02:20.282Z,78.67
2019-05-02T08:04:50.650Z,89.73
2019-05-02T08:07:21.298Z,84.72
2019-05-02T08:09:50.895Z,80.33
2019-05-02T08:12:20.613Z,84.73
2019-05-02T08:14:50.208Z,84.03
2019-05-02T08:17:19.557Z,87.00
2019-05-02T08:19:48.897Z,92.47
2019-05-02T08:22:18.428Z,87.93
2019-05-02T08:24:48.234Z,86.73
2019-05-02T08:27:39.248Z,90.37
2019-05-02T08:30:14.096Z,89.53
2019-05-02T08:32:43.343Z,93.37
2019-05-02T08:35:13.701Z,91.47
2019-05-02T08:37:44.787Z,94.07
2019-05-02T08:40:14.140Z,90.17
2019-05-02T08:42:43.487Z,91.83
2019-05-02T08:45:13.086Z,88.07
2019-05-02T08:47:44.195Z,88.73
2019-05-02T08:50:14.663Z,89.50
2019-05-02T08:52:44.247Z,94.13
2019-05-02T08:55:13.770Z,89.07
2019-05-02T08:57:43.049Z,85.83
2019-05-02T09:00:13.525Z,83.40
2019-05-02T09:02:43.282Z,79.73
2019-05-02T09:05:13.371Z,78.83
2019-05-02T09:07:43.806Z,92.27
2019-05-02T09:10:13.792Z,95.87
2019-05-02T09:12:45.391Z,85.60
2019-05-02T09:15:15.466Z,77.87
2019-05-02T09:17:52.702Z,77.40
2019-05-02T09:20:20.639Z,75.03
2019-05-02T09:22:54.108Z,89.40
2019-05-02T09:25:21.997Z,79.10
2019-05-02T09:27:52.678Z,77.30
2019-05-02T09:30:25.670Z,75.37
2019-05-02T09:32:57.173Z,74.67
2019-05-02T09:35:24.622Z,71.07
2019-05-02T09:37:53.900Z,74.97
2019-05-02T09:40:23.525Z,64.30
2019-05-02T09:42:57.633Z,61.73
2019-05-02T09:45:33.332Z,68.50
2019-05-02T09:48:06.911Z,61.30
2019-05-02T09:50:32.244Z,65.23
2019-05-02T09:53:02.022Z,69.37
2019-05-02T09:55:31.968Z,60.23
2019-05-02T09:58:02.689Z,63.87
2019-05-02T10:00:57.218Z,66.57
2019-05-02T10:03:26.709Z,62.33
2019-05-02T10:05:55.958Z,58.60
2019-05-02T10:08:25.206Z,64.73
2019-05-02T10:10:54.536Z,63.83
2019-05-02T10:13:23.830Z,59.90
2019-05-02T10:15:53.069Z,57.93
2019-05-02T10:18:28.331Z,58.10
2019-05-02T10:20:53.418Z,52.67
2019-05-02T10:23:23.615Z,58.93
2019-05-02T10:25:52.948Z,65.80
2019-05-02T10:28:22.981Z,59.53
2019-05-02T10:30:56.508Z,52.90
2019-05-02T10:33:23.358Z,63.70
2019-05-02T10:35:52.960Z,62.00
2019-05-02T10:38:22.986Z,49.37
2019-05-02T10:40:56.178Z,64.80
2019-05-02T10:43:23.280Z,54.10
2019-05-02T10:46:01.786Z,72.73
2019-05-02T10:48:33.208Z,66.30
2019-05-02T10:51:19.698Z,68.20
2019-05-02T10:53:54.745Z,62.27
2019-05-02T10:56:22.152Z,66.57
2019-05-02T10:58:52.377Z,67.00
2019-05-02T11:01:22.776Z,74.73
2019-05-02T11:03:52.991Z,85.77
2019-05-02T11:06:22.441Z,68.23
2019-05-02T11:08:52.632Z,85.77
2019-05-02T11:11:22.549Z,78.60
2019-05-02T11:14:16.811Z,85.13
2019-05-02T11:17:01.661Z,82.23
2019-05-02T11:19:54.206Z,83.80
2019-05-02T11:22:25.618Z,87.83
2019-05-02T11:24:54.901Z,88.80
2019-05-02T11:27:24.181Z,95.70
2019-05-02T11:29:53.413Z,102.53
2019-05-02T11:32:23.067Z,109.07
2019-05-02T11:34:52.606Z,111.90
2019-05-02T11:37:22.682Z,123.83
2019-05-02T11:39:59.054Z,109.70
2019-05-02T11:42:27.218Z,123.23
2019-05-02T11:44:56.839Z,132.37
2019-05-02T11:47:26.717Z,125.20
2019-05-02T11:49:56.147Z,109.87
2019-05-02T11:52:27.344Z,115.93
2019-05-02T11:54:56.790Z,110.37
2019-05-02T11:57:28.928Z,113.03
2019-05-02T11:59:59.499Z,119.63
2019-05-02T12:02:58.378Z,116.10
2019-05-02T12:05:35.926Z,116.43
2019-05-02T12:08:07.988Z,110.27
2019-05-02T12:10:37.405Z,119.27
2019-05-02T12:13:11.965Z,111.87
2019-05-02T12:15:41.583Z,118.93
2019-05-02T12:18:09.785Z,92.27
2019-05-02T12:20:39.036Z,99.33
2019-05-02T12:23:09.212Z,93.13
2019-05-02T12:25:38.566Z,87.17
2019-05-02T12:28:08.208Z,81.63
2019-05-02T12:30:37.899Z,80.70
2019-05-02T12:33:07.430Z,87.40
2019-05-02T12:35:37.005Z,77.73
2019-05-02T12:38:06.789Z,88.10
2019-05-02T12:40:37.859Z,96.93
2019-05-02T12:43:07.490Z,94.33
2019-05-02T12:45:37.263Z,100.97
2019-05-02T12:48:06.488Z,93.53
2019-05-02T12:50:35.757Z,89.70
2019-05-02T12:53:05.449Z,86.77
2019-05-02T12:55:36.233Z,95.33
2019-05-02T12:58:05.466Z,102.00
2019-05-02T13:00:34.862Z,98.77
2019-05-02T13:03:12.271Z,97.37
2019-05-02T13:05:42.636Z,92.53
2019-05-02T13:08:13.880Z,91.73
2019-05-02T13:11:02.016Z,86.73
2019-05-02T13:13:29.986Z,93.30
2019-05-02T13:16:01.634Z,86.90
2019-05-02T13:18:36.805Z,89.10
2019-05-02T13:21:08.076Z,75.13
2019-05-02T13:23:54.531Z,73.47
2019-05-02T13:26:27.134Z,82.17
2019-05-02T13:28:55.087Z,74.07
2019-05-02T13:31:33.400Z,70.20
2019-05-02T13:34:14.869Z,63.50
2019-05-02T13:36:45.994Z,60.07
2019-05-02T13:39:42.427Z,61.23
2019-05-02T13:42:12.641Z,61.55
2019-05-02T13:45:02.349Z,67.63
2019-05-02T13:47:32.541Z,58.65
2019-05-02T13:50:03.964Z,54.07
2019-05-02T13:52:33.297Z,55.67
2019-05-02T13:55:03.725Z,57.67
2019-05-02T13:57:36.468Z,63.37
2019-05-02T14:00:04.936Z,54.27
2019-05-02T14:02:38.985Z,64.17
2019-05-02T14:05:12.763Z,54.10
2019-05-02T14:07:48.221Z,50.47
2019-05-02T14:10:32.126Z,52.00
2019-05-02T14:13:03.209Z,57.10
2019-05-02T14:15:37.863Z,46.45
2019-05-02T14:18:07.413Z,50.00
2019-05-02T14:20:37.470Z,43.50
2019-05-02T14:23:07.572Z,45.80
2019-05-02T14:25:36.994Z,44.80
2019-05-02T14:28:06.554Z,49.03
2019-05-02T14:30:43.308Z,38.20
2019-05-02T14:33:15.157Z,37.00
2019-05-02T14:35:44.408Z,34.43
2019-05-02T14:38:14.633Z,32.03
2019-05-02T14:40:52.536Z,35.10
2019-05-02T14:43:44.594Z,31.10
2019-05-02T14:46:12.578Z,31.33
2019-05-02T14:48:45.209Z,38.10
2019-05-02T14:51:16.895Z,33.43
2019-05-02T14:53:45.714Z,27.10
2019-05-02T14:56:33.091Z,27.97
2019-05-02T14:59:02.722Z,27.87
2019-05-02T15:01:32.258Z,30.90
2019-05-02T15:04:04.065Z,30.00
2019-05-02T15:06:33.771Z,38.17
2019-05-02T15:09:03.703Z,33.93
2019-05-02T15:11:34.934Z,32.67
2019-05-02T15:14:04.270Z,31.53
2019-05-02T15:16:42.360Z,31.17
2019-05-02T15:19:04.600Z,35.00
2019-05-02T15:21:47.116Z,32.37
2019-05-02T15:24:14.114Z,33.47
2019-05-02T15:26:43.711Z,29.37
2019-05-02T15:29:19.685Z,24.40
2019-05-02T15:31:49.923Z,23.80
2019-05-02T15:34:25.539Z,22.53
2019-05-02T15:36:54.779Z,22.50
2019-05-02T15:41:54.979Z,23.47
2019-05-02T15:44:26.871Z,21.20
2019-05-02T15:46:58.337Z,19.20
2019-05-02T15:49:26.547Z,17.63
2019-05-02T15:51:55.811Z,17.40
2019-05-02T15:54:25.059Z,18.20
2019-05-02T15:57:05.442Z,14.47
2019-05-02T15:59:37.482Z,11.37
2019-05-02T16:02:13.082Z,11.53
2019-05-02T16:04:42.331Z,10.60
2019-05-02T16:07:12.239Z,10.80
2019-05-02T16:09:41.771Z,14.60
2019-05-02T16:12:13.023Z,8.80
2019-05-02T16:14:42.620Z,8.60
2019-05-02T16:17:12.583Z,10.00
2019-05-02T16:19:46.913Z,13.40
2019-05-02T16:22:17.687Z,16.73
2019-05-02T16:24:49.362Z,16.33
2019-05-02T16:27:23.721Z,10.40
2019-05-02T16:29:49.597Z,14.57
2019-05-02T16:32:35.807Z,12.53
2019-05-02T16:35:11.962Z,11.00
2019-05-02T16:37:36.813Z,14.90
2019-05-02T16:40:08.997Z,15.30
2019-05-02T16:42:38.451Z,15.77
2019-05-02T16:45:09.279Z,15.15
2019-05-02T16:47:38.607Z,11.20
2019-05-02T16:50:12.047Z,13.53
2019-05-02T16:52:43.609Z,12.30
2019-05-02T16:55:20.559Z,10.23
2019-05-02T16:57:44.196Z,7.27
2019-05-02T17:00:16.538Z,12.00
2019-05-02T17:02:46.518Z,8.83
2019-05-02T17:05:15.987Z,11.03
2019-05-02T17:08:10.740Z,9.33
2019-05-02T17:10:53.685Z,6.90
2019-05-02T17:13:22.372Z,14.50
2019-05-02T17:15:52.310Z,8.23
2019-05-02T17:18:22.834Z,7.50
2019-05-02T17:20:56.652Z,9.13
2019-05-02T17:23:23.893Z,9.70
2019-05-02T17:25:53.138Z,6.07
2019-05-02T17:28:22.497Z,9.70
2019-05-02T17:30:52.600Z,8.40
2019-05-02T17:33:21.897Z,6.43
2019-05-02T17:35:54.184Z,6.70
2019-05-02T17:38:25.046Z,8.80
2019-05-02T17:40:54.432Z,4.73
2019-05-02T17:43:24.686Z,4.87
2019-05-02T17:45:53.917Z,5.73
2019-05-02T17:48:23.550Z,5.70
2019-05-02T17:51:12.414Z,7.03
2019-05-02T17:53:49.287Z,12.10
2019-05-02T17:56:20.311Z,4.80
2019-05-02T17:58:47.289Z,3.37
2019-05-02T18:01:21.645Z,7.30
2019-05-02T18:03:52.029Z,7.50
2019-05-02T18:06:32.417Z,8.50
2019-05-02T18:08:55.301Z,4.60
2019-05-02T18:11:24.113Z,6.43
2019-05-02T18:13:53.399Z,8.97
2019-05-02T18:16:22.725Z,4.50
2019-05-02T18:18:52.288Z,3.73
2019-05-02T18:21:25.491Z,3.57
2019-05-02T18:23:57.271Z,5.17
2019-05-02T18:26:24.205Z,4.97
2019-05-02T18:28:57.231Z,5.20
2019-05-02T18:31:25.163Z,2.40
2019-05-02T18:33:54.380Z,5.93
2019-05-02T18:36:26.821Z,9.03
2019-05-02T18:39:00.566Z,3.93
2019-05-02T18:41:27.171Z,9.33
2019-05-02T18:43:56.395Z,4.23
2019-05-02T18:46:25.640Z,3.25
2019-05-02T18:48:55.222Z,6.73
2019-05-02T18:51:24.452Z,4.00
2019-05-02T18:53:58.038Z,4.27
2019-05-02T18:56:24.642Z,8.37
2019-05-02T18:58:54.195Z,3.40
2019-05-02T19:01:24.038Z,4.83
2019-05-02T19:03:56.166Z,9.20
2019-05-02T19:06:27.893Z,7.93
2019-05-02T19:08:57.899Z,6.10
2019-05-02T19:11:32.005Z,4.00
2019-05-02T19:13:58.107Z,5.40
2019-05-02T19:16:28.857Z,5.27
2019-05-02T19:18:58.562Z,10.47
2019-05-02T19:21:32.050Z,17.50
2019-05-02T19:24:02.125Z,13.50
2019-05-02T19:26:33.152Z,13.87
2019-05-02T19:29:17.172Z,8.57
2019-05-02T19:31:52.326Z,7.07
2019-05-02T19:34:25.068Z,5.97
2019-05-02T19:36:53.038Z,12.27
2019-05-02T19:39:24.211Z,7.03
2019-05-02T19:41:53.423Z,11.67
2019-05-02T19:44:28.893Z,8.80
2019-05-02T19:46:54.056Z,9.83
2019-05-02T19:49:25.403Z,10.80
2019-05-02T19:51:56.402Z,8.17
2019-05-02T19:54:25.719Z,3.90
2019-05-02T19:56:54.953Z,7.53
2019-05-02T19:59:26.289Z,10.07
2019-05-02T20:02:01.396Z,7.80
2019-05-02T20:04:27.816Z,9.03
2019-05-02T20:06:57.050Z,7.67
2019-05-02T20:09:26.602Z,12.90
2019-05-02T20:11:57.330Z,10.63
2019-05-02T20:14:26.625Z,11.90
2019-05-02T20:16:57.162Z,9.40
2019-05-02T20:19:27.193Z,9.60
2019-05-02T20:22:07.259Z,12.97
2019-05-02T20:25:00.185Z,12.20
2019-05-02T20:27:28.995Z,11.67
2019-05-02T20:29:58.219Z,10.77
2019-05-02T20:32:27.811Z,10.60
2019-05-02T20:34:57.042Z,11.83
2019-05-02T20:37:26.290Z,12.23
2019-05-02T20:39:55.803Z,10.60
2019-05-02T20:42:25.193Z,11.37
2019-05-02T20:44:54.424Z,15.60
2019-05-02T20:47:25.226Z,11.70
2019-05-02T20:49:55.058Z,13.13
2019-05-02T20:52:24.335Z,12.27
2019-05-02T20:54:53.868Z,16.37
2019-05-02T20:57:23.162Z,19.70
2019-05-02T20:59:52.691Z,15.60
2019-05-02T21:02:22.047Z,11.20
2019-05-02T21:04:52.064Z,16.10
2019-05-02T21:07:39.744Z,13.23
2019-05-02T21:10:37.175Z,15.70
2019-05-02T21:13:06.402Z,18.03
2019-05-02T21:15:36.002Z,12.15
2019-05-02T21:18:05.221Z,13.13
2019-05-02T21:20:34.465Z,15.70
2019-05-02T21:23:04.117Z,22.47
2019-05-02T21:25:33.335Z,19.20
2019-05-02T21:28:03.241Z,14.30
2019-05-02T21:30:34.489Z,21.60
2019-05-02T21:33:04.081Z,17.83
2019-05-02T21:35:33.791Z,22.30
2019-05-02T21:38:03.049Z,18.83
2019-05-02T21:40:32.737Z,19.83
2019-05-02T21:43:02.530Z,15.63
2019-05-02T21:45:32.175Z,20.50
2019-05-02T21:48:02.307Z,13.83
2019-05-02T21:50:55.710Z,19.37
2019-05-02T21:53:55.051Z,17.83
2019-05-02T21:56:37.718Z,17.40
2019-05-02T21:59:13.462Z,22.33
2019-05-02T22:01:51.893Z,18.07
2019-05-02T22:04:22.458Z,21.13
2019-05-02T22:06:52.416Z,18.70
2019-05-02T22:09:23.122Z,21.53
2019-05-02T22:11:52.577Z,22.20
2019-05-02T22:14:22.433Z,22.57
2019-05-02T22:16:52.993Z,17.73
2019-05-02T22:19:22.560Z,24.00
2019-05-02T22:21:52.493Z,19.70
2019-05-02T22:24:22.281Z,29.00
2019-05-02T22:26:52.637Z,32.23
2019-05-02T22:29:22.423Z,26.07
2019-05-02T22:31:52.167Z,23.87
2019-05-02T22:34:22.831Z,26.80
2019-05-02T22:36:54.341Z,22.63
2019-05-02T22:39:42.148Z,21.67
2019-05-02T22:42:12.817Z,21.40
2019-05-02T22:44:42.316Z,24.17
2019-05-02T22:47:14.070Z,22.40
2019-05-02T22:49:43.134Z,23.90
2019-05-02T22:52:14.317Z,22.67
2019-05-02T22:54:44.102Z,18.63
2019-05-02T22:57:14.226Z,18.10
2019-05-02T22:59:43.695Z,15.63
2019-05-02T23:02:13.617Z,25.73
2019-05-02T23:04:42.914Z,22.03
2019-05-02T23:07:12.638Z,15.67
2019-05-02T23:09:43.707Z,19.37
2019-05-02T23:12:13.372Z,19.80
2019-05-02T23:14:42.596Z,16.00
2019-05-02T23:17:12.786Z,22.82
2019-05-02T23:19:42.525Z,20.57
2019-05-02T23:22:12.916Z,18.60
2019-05-02T23:25:02.902Z,20.47
2019-05-02T23:27:42.368Z,22.87
2019-05-02T23:30:15.029Z,21.93
2019-05-02T23:32:44.306Z,14.97
2019-05-02T23:35:14.370Z,14.28
2019-05-02T23:37:44.039Z,15.37
2019-05-02T23:40:13.872Z,26.83
2019-05-02T23:42:43.125Z,16.33
2019-05-02T23:45:12.584Z,20.47
2019-05-02T23:47:42.313Z,19.40
2019-05-02T23:50:12.144Z,13.37
2019-05-02T23:52:41.866Z,25.73
2019-05-02T23:55:12.292Z,19.40
2019-05-02T23:57:42.193Z,22.67
